Time;durP1;ratioP1;P1;durP2;ratioP2;P2;SDS_P1;SDS_P2;PMS_P1;PMS_P2;Temp;Humidity;BMP_temperature;BMP_pressure;BME280_temperature;BME280_humidity;BME280_pressure;Samples;Min_cycle;Max_cycle;Signal;HPM_P1;HPM_P2
2021/09/24 00:00:07;;;;;;;3.63;1.00;;;15.10;99.90;;;;;;5091505;28;20655;-62
2021/09/24 00:02:35;;;;;;;2.28;1.00;;;15.10;99.90;;;;;;5091818;28;20279;-62
2021/09/24 00:05:03;;;;;;;2.25;1.02;;;15.10;99.90;;;;;;5091503;28;20233;-62
2021/09/24 00:07:31;;;;;;;2.60;1.35;;;15.10;99.90;;;;;;5091308;28;20648;-63
2021/09/24 00:09:59;;;;;;;1.90;1.08;;;15.10;99.90;;;;;;5091729;28;20418;-62
2021/09/24 00:12:27;;;;;;;2.03;1.13;;;15.20;99.90;;;;;;5091268;28;20850;-62
2021/09/24 00:14:54;;;;;;;2.33;1.05;;;15.20;99.90;;;;;;5091320;28;20288;-62
2021/09/24 00:17:24;;;;;;;4.75;1.20;;;15.20;99.90;;;;;;5091538;28;20200;-63
2021/09/24 00:19:51;;;;;;;3.38;1.30;;;15.20;99.90;;;;;;5091312;28;20200;-62
2021/09/24 00:22:19;;;;;;;3.97;1.45;;;15.20;99.90;;;;;;5095422;28;20202;-63
2021/09/24 00:24:48;;;;;;;3.53;1.60;;;15.20;99.90;;;;;;5095213;28;20207;-62
2021/09/24 00:27:16;;;;;;;3.47;1.10;;;15.30;99.90;;;;;;5095204;28;20286;-62
2021/09/24 00:29:44;;;;;;;3.10;1.10;;;15.30;99.90;;;;;;5094933;28;20697;-62
2021/09/24 00:32:11;;;;;;;3.63;1.50;;;15.30;99.90;;;;;;5094996;28;20202;-61
2021/09/24 00:34:41;;;;;;;4.20;1.40;;;15.30;99.90;;;;;;5094610;28;20206;-61
2021/09/24 00:37:09;;;;;;;4.15;1.58;;;15.20;99.90;;;;;;5094757;28;20678;-63
2021/09/24 00:39:36;;;;;;;2.72;1.40;;;15.20;99.90;;;;;;5094822;28;20291;-62
2021/09/24 00:42:05;;;;;;;4.00;1.50;;;15.20;99.90;;;;;;5094440;28;20202;-61
2021/09/24 00:44:40;;;;;;;3.97;1.35;;;15.10;99.90;;;;;;5095063;28;20296;-63
2021/09/24 00:47:08;;;;;;;3.22;1.42;;;15.10;99.90;;;;;;5094798;28;20575;-62
2021/09/24 00:49:36;;;;;;;3.70;1.30;;;15.10;99.90;;;;;;5094183;28;20675;-62
2021/09/24 00:52:06;;;;;;;4.85;1.40;;;15.00;99.90;;;;;;5094407;28;20204;-62
2021/09/24 00:54:35;;;;;;;4.68;1.60;;;14.90;99.90;;;;;;5094489;28;20751;-62
2021/09/24 00:57:04;;;;;;;6.28;1.50;;;14.90;99.90;;;;;;5094322;28;20648;-61
2021/09/24 00:59:32;;;;;;;3.92;1.75;;;14.80;99.90;;;;;;5094710;28;20201;-63
2021/09/24 01:02:00;;;;;;;4.45;1.58;;;14.80;99.90;;;;;;5094474;28;20210;-63
2021/09/24 01:04:28;;;;;;;3.83;1.35;;;14.70;99.90;;;;;;5094271;28;20295;-62
2021/09/24 01:06:56;;;;;;;4.03;1.63;;;14.60;99.90;;;;;;5094348;28;20212;-62
2021/09/24 01:09:26;;;;;;;4.00;1.33;;;14.50;99.90;;;;;;5094002;28;20234;-62
2021/09/24 01:11:54;;;;;;;4.03;1.70;;;14.40;99.90;;;;;;5094341;28;20200;-62
2021/09/24 01:14:22;;;;;;;2.58;1.40;;;14.40;99.90;;;;;;5094399;28;20291;-63
2021/09/24 01:16:49;;;;;;;3.65;1.35;;;14.40;99.90;;;;;;5094236;28;20196;-63
2021/09/24 01:19:17;;;;;;;3.15;1.30;;;14.40;99.90;;;;;;5094086;28;20207;-63
2021/09/24 01:21:47;;;;;;;5.35;1.63;;;14.30;99.90;;;;;;5093957;28;20211;-60
2021/09/24 01:24:15;;;;;;;4.82;1.73;;;14.30;99.90;;;;;;5094221;28;20235;-63
2021/09/24 01:26:47;;;;;;;4.17;1.53;;;14.20;99.90;;;;;;5093934;28;20216;-62
2021/09/24 01:29:15;;;;;;;3.58;1.60;;;14.10;99.90;;;;;;5094206;28;20191;-61
2021/09/24 01:31:43;;;;;;;5.85;1.90;;;14.00;99.90;;;;;;5092994;28;20207;-63
2021/09/24 01:34:11;;;;;;;6.93;2.00;;;14.00;99.90;;;;;;5093512;28;20639;-61
2021/09/24 01:36:39;;;;;;;5.47;1.92;;;13.90;99.90;;;;;;5093905;28;20200;-61
2021/09/24 01:39:10;;;;;;;6.00;1.75;;;13.90;99.90;;;;;;5093946;28;20202;-63
2021/09/24 01:41:38;;;;;;;4.07;1.45;;;13.90;99.90;;;;;;5093808;28;20247;-61
2021/09/24 01:44:06;;;;;;;3.10;1.38;;;13.80;99.90;;;;;;5093776;28;20218;-61
2021/09/24 01:46:38;;;;;;;10.43;2.20;;;13.80;99.90;;;;;;5093548;28;20222;-63
2021/09/24 01:49:07;;;;;;;5.18;2.28;;;13.80;99.90;;;;;;5093475;28;20224;-63
2021/09/24 01:51:35;;;;;;;2.97;1.40;;;13.80;99.90;;;;;;5093195;28;20204;-62
2021/09/24 01:54:04;;;;;;;4.87;1.70;;;13.80;99.90;;;;;;5093560;28;20227;-63
2021/09/24 01:56:34;;;;;;;2.90;1.40;;;13.80;99.90;;;;;;5093549;28;20199;-62
2021/09/24 01:59:01;;;;;;;4.13;1.42;;;13.80;99.90;;;;;;5093551;28;20208;-64
2021/09/24 02:01:29;;;;;;;4.45;1.60;;;13.80;99.90;;;;;;5092647;28;20203;-62
2021/09/24 02:03:57;;;;;;;3.60;1.70;;;13.80;99.90;;;;;;5093154;28;20265;-61
2021/09/24 02:06:26;;;;;;;4.70;1.73;;;13.80;99.90;;;;;;5092989;28;20212;-62
2021/09/24 02:08:53;;;;;;;7.30;2.13;;;13.80;99.90;;;;;;5092788;28;20324;-63
2021/09/24 02:11:21;;;;;;;4.63;1.67;;;13.70;99.90;;;;;;5093115;28;20200;-62
2021/09/24 02:13:51;;;;;;;6.38;1.95;;;13.70;99.90;;;;;;5093213;28;20210;-62
2021/09/24 02:16:18;;;;;;;4.63;1.80;;;13.70;99.90;;;;;;5092682;28;20200;-63
2021/09/24 02:18:46;;;;;;;5.60;1.40;;;13.70;99.90;;;;;;5092815;28;20200;-62
2021/09/24 02:21:14;;;;;;;6.40;1.90;;;13.70;99.90;;;;;;5092748;28;20556;-62
2021/09/24 02:23:42;;;;;;;4.57;1.67;;;13.70;99.90;;;;;;5092598;28;20697;-63
2021/09/24 02:26:10;;;;;;;4.47;1.70;;;13.80;99.90;;;;;;5092599;28;20872;-62
2021/09/24 02:28:38;;;;;;;3.28;1.40;;;13.80;99.90;;;;;;5093187;28;20196;-63
2021/09/24 02:31:09;;;;;;;5.87;1.93;;;13.90;99.90;;;;;;5092648;28;20195;-62
2021/09/24 02:33:38;;;;;;;5.40;1.87;;;13.90;99.90;;;;;;5093030;28;20200;-62
2021/09/24 02:36:07;;;;;;;5.78;1.98;;;14.00;99.90;;;;;;5092844;28;20200;-62
2021/09/24 02:38:35;;;;;;;5.55;2.13;;;14.10;99.90;;;;;;5092928;28;20291;-64
2021/09/24 02:41:04;;;;;;;5.82;2.00;;;14.10;99.90;;;;;;5092764;28;20204;-62
2021/09/24 02:43:33;;;;;;;8.55;2.05;;;14.10;99.90;;;;;;5092183;28;20546;-62
2021/09/24 02:46:01;;;;;;;7.95;2.03;;;14.20;99.90;;;;;;5092464;28;20208;-62
2021/09/24 02:48:30;;;;;;;5.15;1.80;;;14.20;99.90;;;;;;5092635;28;20227;-62
2021/09/24 02:50:58;;;;;;;6.95;1.90;;;14.20;99.90;;;;;;5092676;28;20210;-61
2021/09/24 02:53:26;;;;;;;5.90;1.90;;;14.30;99.90;;;;;;5092327;28;20209;-62
2021/09/24 02:55:54;;;;;;;6.97;1.60;;;14.30;99.90;;;;;;5092125;28;20214;-61
2021/09/24 02:58:23;;;;;;;3.10;1.58;;;14.30;99.90;;;;;;5092501;28;20197;-61
2021/09/24 03:00:51;;;;;;;4.30;1.83;;;14.30;99.90;;;;;;5092516;28;20203;-62
2021/09/24 03:03:19;;;;;;;3.47;1.70;;;14.30;99.90;;;;;;5092506;28;20214;-63
2021/09/24 03:05:49;;;;;;;5.40;1.60;;;14.20;99.90;;;;;;5092270;28;20557;-61
2021/09/24 03:08:17;;;;;;;4.70;1.30;;;14.20;99.90;;;;;;5092059;28;20238;-62
2021/09/24 03:10:45;;;;;;;4.93;1.48;;;14.20;99.90;;;;;;5092005;28;20234;-62
2021/09/24 03:13:13;;;;;;;4.43;1.47;;;14.20;99.90;;;;;;5092463;28;20298;-62
2021/09/24 03:15:41;;;;;;;4.80;1.42;;;14.10;99.90;;;;;;5092239;28;20735;-62
2021/09/24 03:18:08;;;;;;;2.60;1.20;;;14.10;99.90;;;;;;5092005;28;20196;-61
2021/09/24 03:20:36;;;;;;;3.03;1.25;;;14.10;99.90;;;;;;5092317;28;20292;-62
2021/09/24 03:23:06;;;;;;;3.28;1.30;;;14.10;99.90;;;;;;5092304;28;20211;-62
2021/09/24 03:25:34;;;;;;;5.60;1.50;;;14.10;99.90;;;;;;5092041;28;20200;-61
2021/09/24 03:28:01;;;;;;;5.30;1.37;;;14.10;99.90;;;;;;5089015;28;20227;-62
2021/09/24 03:30:29;;;;;;;5.33;1.40;;;14.10;99.90;;;;;;5091979;28;20196;-62
2021/09/24 03:32:57;;;;;;;4.40;1.30;;;14.00;99.90;;;;;;5091795;28;20203;-62
2021/09/24 03:35:25;;;;;;;2.63;1.20;;;14.00;99.90;;;;;;5091614;28;20647;-61
2021/09/24 03:37:53;;;;;;;3.53;1.27;;;13.90;99.90;;;;;;5091906;28;20214;-62
2021/09/24 03:40:22;;;;;;;3.83;1.13;;;13.90;99.90;;;;;;5091849;28;20312;-62
2021/09/24 03:42:50;;;;;;;5.32;1.42;;;13.90;99.90;;;;;;5091424;28;20295;-63
2021/09/24 03:45:18;;;;;;;5.70;1.60;;;14.00;99.90;;;;;;5091852;28;20283;-62
2021/09/24 03:47:46;;;;;;;3.70;1.17;;;13.90;99.90;;;;;;5091551;28;20212;-63
2021/09/24 03:50:14;;;;;;;4.65;1.30;;;13.80;99.90;;;;;;5091263;28;20218;-62
2021/09/24 03:52:41;;;;;;;5.17;1.70;;;13.80;99.90;;;;;;5091277;28;20328;-61
2021/09/24 03:55:10;;;;;;;4.05;1.60;;;13.80;99.90;;;;;;5094260;28;20599;-62
2021/09/24 03:57:42;;;;;;;5.50;1.50;;;13.80;99.90;;;;;;5095165;28;20227;-62
2021/09/24 04:00:12;;;;;;;3.60;1.40;;;13.70;99.90;;;;;;5095782;28;20202;-62
2021/09/24 04:02:40;;;;;;;3.95;1.42;;;13.60;99.90;;;;;;5095532;28;20222;-62
2021/09/24 04:05:09;;;;;;;5.63;1.63;;;13.60;99.90;;;;;;5095602;28;20196;-62
2021/09/24 04:07:37;;;;;;;4.43;1.50;;;13.60;99.90;;;;;;5094982;28;20224;-61
2021/09/24 04:10:06;;;;;;;6.50;1.85;;;13.50;99.90;;;;;;5095433;28;20188;-62
2021/09/24 04:12:34;;;;;;;4.05;1.50;;;13.40;99.90;;;;;;5094705;28;20200;-62
2021/09/24 04:15:04;;;;;;;4.27;1.73;;;13.40;99.90;;;;;;5095654;28;20200;-63
2021/09/24 04:17:32;;;;;;;4.50;1.80;;;13.30;99.90;;;;;;5095224;28;20181;-62
2021/09/24 04:19:59;;;;;;;7.23;1.97;;;13.30;99.90;;;;;;5095365;28;20196;-61
2021/09/24 04:22:28;;;;;;;6.90;2.00;;;13.30;99.90;;;;;;5095288;28;20196;-62
2021/09/24 04:24:55;;;;;;;3.93;1.53;;;13.20;99.90;;;;;;5095214;28;20203;-62
2021/09/24 04:27:23;;;;;;;5.53;1.93;;;13.20;99.90;;;;;;5094562;28;20220;-61
2021/09/24 04:29:51;;;;;;;7.80;1.87;;;13.10;99.90;;;;;;5095248;28;20196;-63
2021/09/24 04:32:20;;;;;;;5.57;1.70;;;13.10;99.90;;;;;;5094704;28;20676;-62
2021/09/24 04:34:53;;;;;;;4.43;1.73;;;13.10;99.90;;;;;;5095000;28;20644;-62
2021/09/24 04:37:21;;;;;;;4.47;1.60;;;13.00;99.90;;;;;;5095253;28;20295;-62
2021/09/24 04:39:49;;;;;;;4.80;1.87;;;13.00;99.90;;;;;;5095351;28;20280;-62
2021/09/24 04:42:17;;;;;;;5.37;1.93;;;12.90;99.90;;;;;;5094271;28;20570;-63
2021/09/24 04:44:45;;;;;;;6.13;2.20;;;12.90;99.90;;;;;;5094896;28;20196;-64
2021/09/24 04:47:13;;;;;;;5.47;2.17;;;13.00;99.90;;;;;;5094755;28;20553;-62
2021/09/24 04:49:42;;;;;;;3.80;1.50;;;13.00;99.90;;;;;;5095165;28;20232;-62
2021/09/24 04:52:10;;;;;;;6.57;2.03;;;13.10;99.90;;;;;;5095422;28;20203;-62
2021/09/24 04:54:37;;;;;;;4.73;1.90;;;13.00;99.90;;;;;;5095195;28;20195;-63
2021/09/24 04:57:06;;;;;;;2.97;1.70;;;13.00;99.90;;;;;;5094255;28;20291;-61
2021/09/24 04:59:34;;;;;;;8.67;2.03;;;13.00;99.90;;;;;;5095368;28;20206;-63
2021/09/24 05:02:01;;;;;;;7.47;1.97;;;12.90;99.90;;;;;;5094925;28;20206;-62
2021/09/24 05:04:29;;;;;;;9.52;2.45;;;12.90;99.90;;;;;;5095289;28;20614;-62
2021/09/24 05:06:58;;;;;;;5.87;1.70;;;12.80;99.90;;;;;;5094073;28;20664;-63
2021/09/24 05:09:26;;;;;;;7.47;2.00;;;12.70;99.90;;;;;;5094593;28;20224;-61
2021/09/24 05:11:54;;;;;;;4.97;1.80;;;12.70;99.90;;;;;;5094596;28;20203;-62
2021/09/24 05:14:22;;;;;;;6.00;1.90;;;12.70;99.90;;;;;;5094938;28;20206;-62
2021/09/24 05:16:50;;;;;;;8.53;2.33;;;12.60;99.90;;;;;;5094653;28;20273;-62
2021/09/24 05:19:17;;;;;;;3.77;2.00;;;12.60;99.90;;;;;;5094916;28;20214;-62
2021/09/24 05:21:45;;;;;;;4.93;1.70;;;12.60;99.90;;;;;;5094747;28;20295;-63
2021/09/24 05:24:15;;;;;;;3.90;1.90;;;12.50;99.90;;;;;;5094451;28;20668;-62
2021/09/24 05:26:42;;;;;;;5.43;2.20;;;12.60;99.90;;;;;;5093925;28;20603;-63
2021/09/24 05:29:10;;;;;;;4.97;1.77;;;12.60;99.90;;;;;;5093986;28;20204;-65
2021/09/24 05:31:38;;;;;;;8.33;1.97;;;12.60;99.90;;;;;;5093889;28;20200;-65
2021/09/24 05:34:06;;;;;;;3.53;1.80;;;12.60;99.90;;;;;;5094437;28;20200;-63
2021/09/24 05:36:34;;;;;;;6.27;2.00;;;12.70;99.90;;;;;;5094295;28;20250;-62
2021/09/24 05:39:02;;;;;;;4.68;2.17;;;12.70;99.90;;;;;;5094502;28;20193;-62
2021/09/24 05:41:31;;;;;;;4.20;1.90;;;12.70;99.90;;;;;;5093358;28;20291;-61
2021/09/24 05:43:59;;;;;;;4.50;1.90;;;12.70;99.90;;;;;;5094151;28;20699;-62
2021/09/24 05:46:27;;;;;;;8.70;2.25;;;12.80;99.90;;;;;;5094254;28;20204;-62
2021/09/24 05:48:54;;;;;;;4.40;1.93;;;12.80;99.90;;;;;;5093828;28;20672;-62
2021/09/24 05:51:23;;;;;;;6.33;1.90;;;12.80;99.90;;;;;;5094052;28;20251;-63
2021/09/24 05:53:51;;;;;;;4.17;2.10;;;12.90;99.90;;;;;;5093977;28;20200;-62
2021/09/24 05:56:19;;;;;;;5.10;2.10;;;13.00;99.90;;;;;;5093557;28;20276;-62
2021/09/24 05:58:48;;;;;;;6.37;2.43;;;13.00;99.90;;;;;;5094070;28;20298;-62
2021/09/24 06:01:16;;;;;;;4.73;2.30;;;13.10;99.90;;;;;;5093822;28;20200;-61
2021/09/24 06:03:44;;;;;;;4.38;2.00;;;13.20;99.90;;;;;;5093745;28;20203;-62
2021/09/24 06:06:12;;;;;;;4.63;2.23;;;13.30;99.90;;;;;;5094057;28;20274;-62
2021/09/24 06:08:39;;;;;;;4.33;2.30;;;13.40;99.90;;;;;;5093528;28;20227;-62
2021/09/24 06:11:07;;;;;;;8.13;2.90;;;13.40;99.90;;;;;;5093557;28;20246;-62
2021/09/24 06:13:35;;;;;;;5.80;2.58;;;13.50;99.90;;;;;;5093549;28;20712;-62
2021/09/24 06:16:06;;;;;;;5.67;2.53;;;13.50;99.90;;;;;;5093613;28;20200;-61
2021/09/24 06:18:34;;;;;;;5.60;2.47;;;13.70;99.90;;;;;;5093764;28;20249;-61
2021/09/24 06:21:03;;;;;;;5.45;2.70;;;13.80;99.90;;;;;;5093794;28;20617;-61
2021/09/24 06:23:30;;;;;;;3.63;2.20;;;13.90;99.90;;;;;;5093428;28;20204;-61
2021/09/24 06:25:59;;;;;;;4.73;2.20;;;13.90;99.90;;;;;;5092903;28;20239;-62
2021/09/24 06:28:28;;;;;;;6.10;2.22;;;14.00;99.90;;;;;;5093269;28;20298;-62
2021/09/24 06:30:57;;;;;;;7.47;2.28;;;14.00;99.90;;;;;;5093148;28;20302;-62
2021/09/24 06:33:26;;;;;;;3.70;1.93;;;14.00;99.90;;;;;;5093365;28;20291;-61
2021/09/24 06:35:54;;;;;;;5.65;2.05;;;14.00;99.90;;;;;;5093439;28;20484;-62
2021/09/24 06:38:22;;;;;;;8.02;2.30;;;14.00;99.90;;;;;;5093061;28;20242;-61
2021/09/24 06:40:50;;;;;;;3.42;2.05;;;14.10;99.90;;;;;;5093029;28;20200;-62
2021/09/24 06:43:18;;;;;;;4.65;2.40;;;14.20;99.90;;;;;;5093081;28;20238;-62
2021/09/24 06:45:46;;;;;;;2.80;2.03;;;14.20;99.90;;;;;;5093228;28;20393;-63
2021/09/24 06:48:14;;;;;;;3.50;2.47;;;14.20;99.90;;;;;;5093156;28;20249;-62
2021/09/24 06:50:48;;;;;;;6.72;2.42;;;14.30;99.90;;;;;;5093186;28;20196;-62
2021/09/24 06:53:16;;;;;;;4.93;2.00;;;14.30;99.90;;;;;;5092991;28;20207;-62
2021/09/24 06:55:44;;;;;;;4.13;1.80;;;14.30;99.90;;;;;;5092039;28;20649;-62
2021/09/24 06:58:12;;;;;;;6.45;2.42;;;14.40;99.90;;;;;;5092236;28;20204;-62
2021/09/24 07:00:39;;;;;;;4.03;2.00;;;14.50;99.90;;;;;;5092140;28;20564;-62
2021/09/24 07:03:07;;;;;;;4.30;1.98;;;14.70;99.90;;;;;;5091896;28;20200;-62
2021/09/24 07:05:35;;;;;;;3.78;1.50;;;14.90;99.90;;;;;;5091935;28;20200;-62
2021/09/24 07:08:05;;;;;;;3.80;2.00;;;15.10;99.90;;;;;;5092046;28;20244;-63
2021/09/24 07:10:33;;;;;;;4.30;1.75;;;15.10;99.90;;;;;;5091737;28;20219;-63
2021/09/24 07:13:01;;;;;;;4.53;1.60;;;15.30;99.90;;;;;;5091957;28;20199;-62
2021/09/24 07:15:29;;;;;;;3.92;1.70;;;15.50;99.90;;;;;;5092272;28;20204;-62
2021/09/24 07:17:56;;;;;;;4.53;1.98;;;15.60;99.90;;;;;;5091992;28;20570;-62
2021/09/24 07:20:24;;;;;;;4.50;1.90;;;15.70;99.90;;;;;;5092022;28;20297;-62
2021/09/24 07:22:55;;;;;;;3.45;1.85;;;15.80;99.90;;;;;;5092235;28;20242;-62
2021/09/24 07:25:25;;;;;;;3.58;1.90;;;15.90;99.90;;;;;;5091703;28;20222;-62
2021/09/24 07:27:53;;;;;;;5.18;1.70;;;16.00;99.90;;;;;;5091219;28;20203;-63
2021/09/24 07:30:20;;;;;;;4.60;1.70;;;16.10;99.90;;;;;;5097500;28;20306;-61
2021/09/24 07:32:48;;;;;;;5.05;1.60;;;16.10;99.90;;;;;;5098549;28;20200;-62
2021/09/24 07:35:16;;;;;;;4.13;1.88;;;16.10;99.90;;;;;;5098460;28;20204;-63
2021/09/24 07:37:44;;;;;;;2.53;1.80;;;16.10;99.90;;;;;;5098678;28;20616;-62
2021/09/24 07:40:13;;;;;;;3.83;1.90;;;16.00;99.90;;;;;;5098304;28;20195;-63
2021/09/24 07:42:42;;;;;;;5.03;1.70;;;16.10;99.90;;;;;;5098491;28;20292;-64
2021/09/24 07:45:11;;;;;;;5.22;1.50;;;16.00;99.90;;;;;;5098655;28;20210;-62
2021/09/24 07:47:39;;;;;;;4.90;1.95;;;15.90;99.90;;;;;;5098433;28;20204;-61
2021/09/24 07:50:07;;;;;;;4.55;1.60;;;15.90;99.90;;;;;;5098558;28;20310;-60
2021/09/24 07:52:35;;;;;;;2.72;1.50;;;16.10;99.90;;;;;;5098890;28;20200;-61
2021/09/24 07:55:03;;;;;;;4.53;1.80;;;16.30;99.90;;;;;;5098860;28;20199;-59
2021/09/24 07:57:31;;;;;;;4.30;1.67;;;16.50;99.90;;;;;;5098962;28;20240;-61
2021/09/24 08:00:01;;;;;;;2.47;1.50;;;16.80;99.90;;;;;;5098946;28;20228;-60
2021/09/24 08:02:29;;;;;;;2.65;1.42;;;17.00;99.90;;;;;;5098807;28;20231;-61
2021/09/24 08:04:57;;;;;;;2.88;1.70;;;17.10;99.90;;;;;;5099122;28;20203;-60
2021/09/24 08:07:25;;;;;;;4.35;1.63;;;17.30;99.90;;;;;;5098793;28;20306;-60
2021/09/24 08:09:53;;;;;;;3.78;1.67;;;17.40;99.90;;;;;;5097840;28;20307;-63
2021/09/24 08:12:21;;;;;;;5.70;1.75;;;17.40;99.90;;;;;;5097339;28;20204;-63
2021/09/24 08:15:00;;;;;;;2.53;1.50;;;17.40;99.90;;;;;;5095833;28;20196;-64
2021/09/24 08:17:29;;;;;;;2.10;1.08;;;17.50;99.90;;;;;;5095644;28;20187;-64
2021/09/24 08:19:58;;;;;;;2.78;1.77;;;17.50;99.90;;;;;;5095809;28;20204;-62
2021/09/24 08:22:26;;;;;;;3.10;1.25;;;17.50;99.90;;;;;;5095704;28;20723;-64
2021/09/24 08:24:56;;;;;;;3.15;1.35;;;17.50;99.90;;;;;;5095410;28;20271;-67
2021/09/24 08:27:24;;;;;;;2.17;1.00;;;17.40;99.90;;;;;;5095688;28;20232;-66
2021/09/24 08:29:52;;;;;;;5.90;1.42;;;17.30;99.90;;;;;;5095531;28;20216;-67
2021/09/24 08:32:22;;;;;;;2.28;1.30;;;17.20;99.90;;;;;;5095495;28;20224;-66
2021/09/24 08:34:50;;;;;;;3.30;1.15;;;17.10;99.90;;;;;;5095572;28;20203;-64
2021/09/24 08:37:18;;;;;;;2.25;1.10;;;17.00;99.90;;;;;;5095732;28;20286;-65
2021/09/24 08:39:46;;;;;;;0.73;0.73;;;17.00;99.90;;;;;;5095920;28;20200;-60
2021/09/24 08:42:13;;;;;;;3.17;1.13;;;16.90;99.90;;;;;;5090594;28;20279;-62
2021/09/24 08:44:42;;;;;;;1.75;0.93;;;16.90;99.90;;;;;;5092427;28;20295;-61
2021/09/24 08:47:10;;;;;;;1.80;1.10;;;17.00;99.90;;;;;;5092184;28;20196;-64
2021/09/24 08:49:39;;;;;;;1.42;1.00;;;17.10;99.90;;;;;;5089551;28;20249;-64
2021/09/24 08:52:07;;;;;;;3.75;1.10;;;17.20;99.90;;;;;;5091930;28;20638;-64
2021/09/24 08:54:35;;;;;;;1.38;1.00;;;17.50;99.90;;;;;;5091883;28;20208;-65
2021/09/24 08:57:03;;;;;;;1.77;0.90;;;17.80;99.90;;;;;;5091689;28;20303;-64
2021/09/24 08:59:31;;;;;;;2.60;1.15;;;18.10;99.90;;;;;;5092099;28;20234;-60
2021/09/24 09:02:01;;;;;;;2.22;0.93;;;18.30;99.90;;;;;;5091959;28;20262;-63
2021/09/24 09:04:34;;;;;;;1.52;0.85;;;18.50;99.90;;;;;;5092178;28;20212;-59
2021/09/24 09:07:10;;;;;;;1.45;0.85;;;18.50;99.90;;;;;;5091749;28;20279;-63
2021/09/24 09:09:40;;;;;;;2.65;1.08;;;18.50;99.90;;;;;;5091420;28;20241;-62
2021/09/24 09:12:12;;;;;;;2.22;0.77;;;18.70;99.90;;;;;;5091579;28;20224;-59
2021/09/24 09:14:41;;;;;;;1.30;0.90;;;18.80;99.90;;;;;;5091577;28;20235;-59
2021/09/24 09:17:28;;;;;;;1.95;0.80;;;18.90;99.90;;;;;;5091115;28;20291;-60
2021/09/24 09:20:18;;;;;;;1.25;0.80;;;18.80;99.90;;;;;;5091116;28;20234;-61
2021/09/24 09:22:50;;;;;;;1.10;0.80;;;18.70;99.90;;;;;;5091108;28;20275;-62
2021/09/24 09:25:26;;;;;;;1.20;0.90;;;18.80;99.90;;;;;;5091340;28;20215;-61
2021/09/24 09:27:56;;;;;;;3.22;1.00;;;18.70;99.90;;;;;;5090984;28;20538;-62
2021/09/24 09:30:24;;;;;;;3.63;1.00;;;18.60;99.90;;;;;;5090719;28;20331;-63
2021/09/24 09:33:02;;;;;;;0.80;0.70;;;18.50;99.90;;;;;;5090616;28;20204;-63
2021/09/24 09:35:34;;;;;;;1.40;0.82;;;18.30;99.90;;;;;;5090973;28;20670;-60
2021/09/24 09:38:04;;;;;;;1.90;0.98;;;18.40;99.90;;;;;;5091235;28;20241;-61
2021/09/24 09:40:31;;;;;;;3.83;0.90;;;18.70;99.90;;;;;;5091014;28;20240;-63
2021/09/24 09:42:59;;;;;;;3.25;1.00;;;18.80;99.90;;;;;;5090708;28;20219;-63
2021/09/24 09:45:28;;;;;;;1.60;1.00;;;18.90;99.90;;;;;;5090891;28;20556;-63
2021/09/24 09:47:56;;;;;;;3.05;1.10;;;19.00;99.90;;;;;;5090265;28;20307;-62
2021/09/24 09:50:26;;;;;;;2.92;1.20;;;19.20;99.90;;;;;;5090762;28;20319;-61
2021/09/24 09:53:04;;;;;;;2.05;0.90;;;19.40;99.90;;;;;;5090406;28;20188;-64
2021/09/24 09:55:34;;;;;;;3.13;0.80;;;19.20;99.90;;;;;;5090733;28;20194;-60
2021/09/24 09:58:06;;;;;;;2.58;0.90;;;19.20;99.90;;;;;;5090179;28;20744;-62
2021/09/24 10:00:35;;;;;;;1.10;0.80;;;19.10;99.90;;;;;;5090827;28;20203;-62
2021/09/24 10:03:09;;;;;;;2.05;1.02;;;19.00;99.90;;;;;;5090137;28;20218;-61
2021/09/24 10:05:39;;;;;;;2.13;0.80;;;19.00;99.90;;;;;;5090230;28;20191;-60
2021/09/24 10:08:26;;;;;;;2.33;1.00;;;19.00;99.90;;;;;;5090078;28;20318;-61
2021/09/24 10:10:56;;;;;;;1.60;0.80;;;18.80;99.90;;;;;;5070085;28;20294;-61
2021/09/24 10:13:25;;;;;;;1.77;0.75;;;18.90;99.90;;;;;;5069396;28;20621;-63
2021/09/24 10:15:53;;;;;;;1.17;0.70;;;19.00;99.90;;;;;;5069494;28;20859;-64
2021/09/24 10:18:21;;;;;;;1.52;1.00;;;19.10;99.90;;;;;;5069940;28;20218;-61
2021/09/24 10:20:53;;;;;;;1.25;0.75;;;19.20;99.90;;;;;;5070262;28;20189;-61
2021/09/24 10:23:21;;;;;;;1.55;0.88;;;19.10;99.90;;;;;;5070009;28;20204;-61
2021/09/24 10:25:57;;;;;;;1.25;0.90;;;19.00;99.90;;;;;;5069993;28;20197;-61
2021/09/24 10:28:32;;;;;;;2.83;1.10;;;18.90;99.90;;;;;;5069738;28;20219;-61
2021/09/24 10:31:01;;;;;;;1.67;1.10;;;18.70;99.90;;;;;;5069658;28;20353;-61
2021/09/24 10:33:51;;;;;;;1.42;0.73;;;18.40;99.90;;;;;;5070099;28;20202;-60
2021/09/24 10:36:42;;;;;;;1.70;1.05;;;18.30;99.90;;;;;;5069988;28;20232;-60
2021/09/24 10:39:36;;;;;;;1.08;0.93;;;18.10;99.90;;;;;;5069279;28;20200;-61
2021/09/24 10:42:39;;;;;;;2.65;0.80;;;18.10;99.90;;;;;;5069288;28;20219;-60
2021/09/24 10:45:14;;;;;;;2.45;0.80;;;18.10;99.90;;;;;;5074706;28;20318;-62
2021/09/24 10:47:49;;;;;;;1.25;0.90;;;18.30;99.90;;;;;;5088813;28;20233;-63
2021/09/24 10:51:00;;;;;;;2.13;1.05;;;18.50;99.90;;;;;;5089728;28;20878;-63
2021/09/24 10:53:39;;;;;;;1.20;0.85;;;18.80;99.90;;;;;;5089843;28;20188;-59
2021/09/24 10:56:26;;;;;;;1.73;0.80;;;19.20;99.90;;;;;;5090027;28;20408;-58
2021/09/24 10:58:57;;;;;;;2.78;0.90;;;19.30;99.90;;;;;;5090121;28;20184;-60
2021/09/24 11:01:39;;;;;;;1.27;0.80;;;19.70;99.90;;;;;;5089909;28;20624;-60
2021/09/24 11:04:12;;;;;;;1.20;0.90;;;20.00;99.90;;;;;;5089154;28;20200;-61
2021/09/24 11:06:42;;;;;;;1.33;0.70;;;20.20;99.90;;;;;;5090009;28;20275;-62
2021/09/24 11:09:12;;;;;;;1.65;0.60;;;20.40;99.90;;;;;;5092286;28;20267;-62
2021/09/24 11:11:41;;;;;;;1.10;0.75;;;20.50;99.90;;;;;;5092794;28;20226;-62
2021/09/24 11:14:30;;;;;;;1.15;0.70;;;20.50;99.90;;;;;;5092990;28;20211;-61
2021/09/24 11:17:00;;;;;;;2.25;0.65;;;20.50;99.90;;;;;;5092633;28;20216;-62
2021/09/24 11:19:39;;;;;;;1.23;0.80;;;20.20;99.90;;;;;;5092319;28;20242;-62
2021/09/24 11:22:14;;;;;;;2.78;0.80;;;20.10;99.90;;;;;;5092071;28;20214;-62
2021/09/24 11:24:45;;;;;;;1.40;0.80;;;20.00;99.90;;;;;;5090433;28;20278;-61
2021/09/24 11:27:14;;;;;;;2.08;0.77;;;20.00;99.90;;;;;;5091738;28;20180;-62
2021/09/24 11:30:19;;;;;;;3.03;0.98;;;20.00;99.90;;;;;;5092383;28;20242;-61
2021/09/24 11:32:50;;;;;;;3.08;0.80;;;20.10;99.90;;;;;;5089303;28;20215;-62
2021/09/24 11:35:21;;;;;;;2.00;0.95;;;20.30;99.90;;;;;;5092134;28;20664;-60
2021/09/24 11:37:49;;;;;;;2.25;1.05;;;20.20;99.90;;;;;;5072335;28;20629;-63
2021/09/24 11:40:19;;;;;;;1.17;0.90;;;20.20;99.90;;;;;;5077540;28;20211;-61
2021/09/24 11:42:51;;;;;;;0.57;0.57;;;20.20;99.90;;;;;;5092352;28;20184;-62
2021/09/24 11:45:24;;;;;;;2.10;0.90;;;20.20;99.90;;;;;;5092742;28;20208;-61
2021/09/24 11:48:00;;;;;;;0.95;0.77;;;20.30;99.90;;;;;;5092249;28;20271;-61
2021/09/24 11:50:31;;;;;;;2.08;0.80;;;20.30;99.90;;;;;;5092113;28;20223;-61
2021/09/24 11:53:00;;;;;;;1.40;0.90;;;20.10;99.90;;;;;;5091894;28;20204;-61
2021/09/24 11:55:30;;;;;;;1.10;0.80;;;20.00;99.90;;;;;;5091628;28;20204;-61
2021/09/24 11:58:06;;;;;;;3.45;0.93;;;20.00;99.90;;;;;;5091528;28;20203;-62
2021/09/24 12:00:38;;;;;;;1.63;0.90;;;19.90;99.90;;;;;;5091717;28;20180;-61
2021/09/24 12:03:28;;;;;;;1.70;0.95;;;19.90;99.90;;;;;;5091478;28;20183;-61
2021/09/24 12:06:01;;;;;;;1.40;1.00;;;19.80;99.90;;;;;;5091988;28;20269;-61
2021/09/24 12:08:31;;;;;;;1.65;0.95;;;19.60;99.90;;;;;;5091576;28;20327;-61
2021/09/24 12:11:01;;;;;;;2.10;1.10;;;19.50;99.90;;;;;;5091851;28;20211;-62
2021/09/24 12:13:44;;;;;;;1.27;1.17;;;19.30;99.90;;;;;;5091722;28;20545;-62
2021/09/24 12:16:18;;;;;;;1.27;0.90;;;19.20;99.90;;;;;;5094161;28;20212;-61
2021/09/24 12:18:58;;;;;;;1.77;1.02;;;19.00;99.90;;;;;;5095713;28;20192;-61
2021/09/24 12:21:29;;;;;;;1.20;0.93;;;18.80;99.90;;;;;;5095513;28;20184;-61
2021/09/24 12:23:58;;;;;;;1.65;0.80;;;18.80;99.90;;;;;;5095406;28;20189;-61
2021/09/24 12:26:35;;;;;;;3.38;1.08;;;18.80;99.90;;;;;;5094940;28;20253;-62
2021/09/24 12:29:07;;;;;;;2.15;1.50;;;18.90;99.90;;;;;;5095136;28;20697;-62
2021/09/24 12:31:39;;;;;;;1.63;1.30;;;19.10;99.90;;;;;;5095160;28;20253;-63
2021/09/24 12:34:10;;;;;;;1.50;1.40;;;19.20;99.90;;;;;;5095471;28;20189;-62
2021/09/24 12:36:58;;;;;;;2.15;1.58;;;19.50;99.90;;;;;;5094946;28;20842;-63
2021/09/24 12:39:28;;;;;;;4.75;1.95;;;19.60;99.90;;;;;;5095153;28;20281;-61
2021/09/24 12:41:58;;;;;;;2.95;2.20;;;19.60;99.90;;;;;;5094323;28;20571;-63
2021/09/24 12:44:27;;;;;;;3.40;2.10;;;19.80;99.90;;;;;;5094796;28;20188;-61
2021/09/24 12:46:59;;;;;;;4.13;2.15;;;19.80;99.90;;;;;;5094989;28;20295;-62
2021/09/24 12:49:28;;;;;;;4.88;1.80;;;19.80;99.90;;;;;;5094783;28;20193;-62
2021/09/24 12:51:57;;;;;;;3.92;2.10;;;19.70;99.90;;;;;;5095152;28;20200;-60
2021/09/24 12:54:27;;;;;;;4.28;1.98;;;19.60;99.90;;;;;;5092215;28;20196;-62
2021/09/24 12:56:55;;;;;;;3.30;2.10;;;19.50;99.90;;;;;;5095121;28;20287;-62
2021/09/24 12:59:23;;;;;;;2.90;1.90;;;19.40;99.90;;;;;;5095316;28;20277;-61
2021/09/24 13:01:51;;;;;;;3.33;1.70;;;19.40;99.90;;;;;;5094895;28;20715;-62